Decoded Metar for KFDK (FREDERICK in MD, USA) (IATA:FDK) | Meteo·Mobile Aviation Weather
aviador You're here:

KFDK Decoded Metar

FREDERICK in MD, USA
Report Time2019-02-20 19:47:00
UTC Time2019-02-20 20:31:33
Flight Rules mvfr MVFR
WindCalm
Visibility8047 m
Phenomena:Mist
Clouds:Overcast 014 Hf
Expected CloudBase > 1,200 ft AGL from Temp-Dew spread
Ceiling1,400 ft
Temp01°C (ISA -13)
Dew Point-2°C (81% RH)
AAT-1.2°C
QNH1028 hPa
Density Alt-1,768 ft
Elevation302 ft
Report Wrong Elevation
Raw Report
KFDK 201947Z 00000KT 5SM BR OVC014 01/M02 A3037=

Extra information for KFDK:More info

Metar Taf Metar & Taf Last 4 Metars F.Rules Stats Wind Profile Meteogram Temp Stats Airport Information Weather charts Add Link Nearby VenuesMetar ALERT Operation Metar Decoded Social comments

AIRNAV info for KFDK